Flight Track Log - Related Links

Times and Time Zones

All times are in EDT time to prevent confusion due to time zone crossing. See the N816CC flight status page for this flight to view local times or setup timezone preferences in your user account.

Time Position Orientation Groundspeed Altitude Reporting Facility
EDT Latitude Longitude Course Direction KTS MPH feet Rate Location/Type
Sun 05:26:39 PM 26.2189 -81.7172 340° North 222 255 3,500  Level Miami Center
Sun 05:27:39 PM 26.2528 -81.7694 306° West 223 257 7,000 3,650 Climbing Miami Center
Sun 05:28:39 PM 26.2311 -81.8497 253° West 185 213 10,800 3,700 Climbing Miami Center
Sun 05:29:39 PM 26.2428 -81.9336 279° West 235 270 14,400 3,300 Climbing Miami Center
Sun 05:30:39 PM 26.2692 -82.0203 289° West 266 306 17,400 2,650 Climbing Miami Center
Sun 05:31:00 PM 26.2420 -82.4094 338° Northwest  Level FlightAware Approximate
Sun 05:31:39 PM 26.2947 -82.1211 286° West 308 354 19,700  Level Miami Center
Sun 05:32:00 PM 26.3488 -82.4562 340° North  Level FlightAware Approximate
Sun 05:32:39 PM 26.3264 -82.2219 289° West 331 381 22,200  Level Miami Center
Sun 05:33:39 PM 26.3583 -82.3231 289° West 350 403 24,700 2,500 Climbing Miami Center
Sun 05:34:39 PM 26.3961 -82.4267 292° West 356 410 27,200 2,200 Climbing Miami Center
Sun 05:35:39 PM 26.4797 -82.4794 331° Northwest 334 384 29,100 1,400 Climbing Miami Center
Sun 05:36:39 PM 26.5783 -82.5189 340° North 340 391 30,000 600 Climbing Miami Center
Sun 05:37:39 PM 26.6828 -82.5658 338° Northwest 372 428 30,300 400 Climbing Miami Center
Sun 05:38:39 PM 26.7917 -82.6131 339° North 394 453 30,800 500 Climbing Miami Center
Sun 05:39:39 PM 26.9044 -82.6606 339° North 417 480 31,300 500 Climbing Miami Center
Sun 05:40:39 PM 27.0194 -82.7106 339° North 431 496 31,800 550 Climbing Miami Center
Sun 05:41:39 PM 27.1319 -82.7628 338° Northwest 437 503 32,400 600 Climbing Miami Center
Sun 05:42:39 PM 27.2222 -82.8000 340° North 437 503 33,000 700 Climbing Miami Center
Sun 05:43:39 PM 27.3431 -82.8531 339° North 431 496 33,800 670 Climbing Miami Center
Sun 05:45:56 PM 27.5761 -82.9558 339° North 429 494 35,200 697 Climbing Jacksonville Center
Sun 05:46:57 PM 27.7033 -83.0122 339° North 422 486 36,100 793 Climbing Jacksonville Center
Sun 05:47:57 PM 27.8097 -83.0614 338° Northwest 412 474 36,800 700 Climbing Jacksonville Center
Sun 05:48:57 PM 27.9181 -83.1086 339° North 412 474 37,500 750 Climbing Jacksonville Center
Sun 05:49:57 PM 28.0267 -83.1511 341° North 412 474 38,300 800 Climbing Jacksonville Center
Sun 05:50:57 PM 28.1433 -83.1750 350° North 418 481 39,100 800 Climbing Jacksonville Center
Sun 05:51:57 PM 28.2622 -83.1989 350° North 425 489 39,900 450 Climbing Jacksonville Center
Sun 05:52:57 PM 28.3894 -83.2253 350° North 425 489 40,000  Climbing Jacksonville Center
Sun 05:53:57 PM 28.5083 -83.2469 351° North 430 495 39,900  Descending Jacksonville Center
Sun 05:54:57 PM 28.6294 -83.2733 349° North 430 495 40,000 50 Climbing Jacksonville Center
Sun 05:55:57 PM 28.7503 -83.2975 350° North 430 495 40,000  Level Jacksonville Center
Sun 05:56:57 PM 28.8733 -83.3217 350° North 430 495 40,000 200 Level Jacksonville Center
Sun 05:57:57 PM 28.9944 -83.3508 348° North 435 501 40,400 450 Climbing Jacksonville Center
Sun 05:58:57 PM 29.1089 -83.3822 347° North 435 501 40,900 300 Climbing Jacksonville Center
Sun 05:59:57 PM 29.2300 -83.4208 344° North 435 501 41,000 50 Climbing Jacksonville Center
Sun 06:00:57 PM 29.3508 -83.4547 346° North 435 501 41,000  Level Jacksonville Center
Sun 06:01:57 PM 29.4675 -83.4914 345° North 435 501 41,000  Level Jacksonville Center
Sun 06:02:57 PM 29.5886 -83.5278 345° North 435 501 41,000  Level Jacksonville Center
Sun 06:03:57 PM 29.7094 -83.5644 345° North 435 501 41,000  Level Jacksonville Center
Sun 06:04:57 PM 29.8325 -83.5989 346° North 435 501 41,000  Level Jacksonville Center
Sun 06:05:57 PM 29.9533 -83.6358 345° North 435 501 41,000  Level Jacksonville Center
Sun 06:06:57 PM 30.0761 -83.6728 345° North 435 501 41,000  Level Jacksonville Center
Sun 06:07:57 PM 30.1992 -83.7072 346° North 441 507 41,000  Level Jacksonville Center
Sun 06:08:57 PM 30.3222 -83.7419 346° North 446 513 41,000  Level Jacksonville Center
Sun 06:09:57 PM 30.4431 -83.7817 344° North 451 519 41,000  Level Jacksonville Center
Sun 06:10:57 PM 30.5389 -83.8092 346° North 451 519 41,000  Level Jacksonville Center
Sun 06:11:57 PM 30.6681 -83.8489 345° North 446 513 41,000  Level Jacksonville Center
Sun 06:12:57 PM 30.7889 -83.8889 344° North 446 513 41,000  Level Jacksonville Center
Sun 06:13:57 PM 30.9097 -83.9217 347° North 446 513 41,000  Level Jacksonville Center
Sun 06:16:05 PM 31.1789 -84.0072 345° North 449 517 41,000  Level Atlanta Center
Sun 06:17:05 PM 31.3000 -84.0436 346° North 449 517 41,000  Level Atlanta Center
Sun 06:18:05 PM 31.4211 -84.0803 346° North 449 517 41,000  Level Atlanta Center
Sun 06:19:05 PM 31.5419 -84.1192 345° North 449 517 41,000  Level Atlanta Center
Sun 06:20:05 PM 31.6672 -84.1583 345° North 449 517 41,000  Level Atlanta Center
Sun 06:21:05 PM 31.7883 -84.1953 345° North 449 517 41,000  Level Atlanta Center
Sun 06:22:05 PM 31.9092 -84.2297 346° North 454 522 41,000  Level Atlanta Center
Sun 06:23:05 PM 32.0322 -84.2692 345° North 454 522 41,000  Level Atlanta Center
Sun 06:24:05 PM 32.1303 -84.2989 346° North 454 522 41,000  Level Atlanta Center
Sun 06:25:05 PM 32.2597 -84.3433 344° North 454 522 41,000  Level Atlanta Center
Sun 06:26:05 PM 32.3828 -84.3808 346° North 454 522 41,000  Level Atlanta Center
Sun 06:27:05 PM 32.5036 -84.4181 345° North 454 522 41,000  Level Atlanta Center
Sun 06:28:05 PM 32.6225 -84.4556 345° North 454 522 41,000  Level Atlanta Center
Sun 06:29:05 PM 32.7436 -84.4958 344° North 448 516 41,000  Level Atlanta Center
Sun 06:30:05 PM 32.8622 -84.5308 346° North 443 510 41,000  Level Atlanta Center
Sun 06:31:05 PM 32.9833 -84.5711 344° North 443 510 41,000  Level Atlanta Center
Sun 06:32:05 PM 33.1042 -84.6092 345° North 443 510 41,000  Level Atlanta Center
Sun 06:33:05 PM 33.2272 -84.6472 345° North 448 516 41,000  Level Atlanta Center
Sun 06:34:05 PM 33.3458 -84.6878 344° North 448 516 41,000  Level Atlanta Center
Sun 06:35:05 PM 33.4792 -84.7311 345° North 453 521 41,000  Level Atlanta Center
Sun 06:36:05 PM 33.6022 -84.7669 346° North 453 521 41,000  Level Atlanta Center
Sun 06:37:05 PM 33.7231 -84.8106 343° North 453 521 41,000  Level Atlanta Center
Sun 06:38:05 PM 33.8439 -84.8442 347° North 453 521 41,000  Level Atlanta Center
Sun 06:39:05 PM 33.9667 -84.8903 343° North 458 527 41,000  Level Atlanta Center
Sun 06:40:05 PM 34.0750 -84.9267 344° North 453 521 41,000  Level Atlanta Center
Sun 06:41:05 PM 34.1958 -84.9631 346° North 453 521 41,000  Level Atlanta Center
Sun 06:42:05 PM 34.3164 -85.0019 345° North 448 516 41,000  Level Atlanta Center
Sun 06:43:05 PM 34.4392 -85.0411 345° North 453 521 41,000  Level Atlanta Center
Sun 06:44:05 PM 34.5619 -85.0831 344° North 453 521 41,000  Level Atlanta Center
Sun 06:45:05 PM 34.6869 -85.1250 345° North 446 513 41,000  Level Atlanta Center
Sun 06:46:05 PM 34.8097 -85.1669 344° North 441 507 41,000  Level Atlanta Center
Sun 06:47:05 PM 34.9283 -85.2067 345° North 441 507 41,000  Level Atlanta Center
Sun 06:48:05 PM 35.0508 -85.2464 345° North 441 507 41,000  Level Atlanta Center
Sun 06:49:05 PM 35.1717 -85.2864 345° North 441 507 41,000  Level Atlanta Center
Sun 06:50:05 PM 35.2942 -85.3289 344° North 441 507 41,000  Level Atlanta Center
Sun 06:51:37 PM 35.4633 -85.3844 345° North 452 520 41,000  Level Indianapolis Center
Sun 06:52:34 PM 35.5850 -85.4250 345° North 449 517 41,000  Level Memphis Center
Sun 06:53:34 PM 35.7056 -85.4664 344° North 449 517 41,000  Level Memphis Center
Sun 06:54:34 PM 35.8283 -85.5103 344° North 449 517 41,000  Level Memphis Center
Sun 06:55:34 PM 35.9614 -85.5564 344° North 449 517 41,000  Level Memphis Center
Sun 06:56:34 PM 36.0839 -85.5981 345° North 449 517 41,000  Level Memphis Center
Sun 06:57:34 PM 36.2064 -85.6397 345° North 449 517 41,000  Level Memphis Center
Sun 06:58:34 PM 36.3247 -85.6817 344° North 444 511 41,000  Level Memphis Center
Sun 06:59:34 PM 36.4472 -85.7211 345° North 444 511 41,000  Level Memphis Center
Sun 07:00:34 PM 36.5675 -85.7658 343° North 444 511 41,000  Level Memphis Center
Sun 07:01:34 PM 36.6919 -85.8053 346° North 444 511 41,000  Level Memphis Center
Sun 07:02:34 PM 36.8103 -85.8506 343° North 449 517 41,000  Level Memphis Center
Sun 07:03:34 PM 36.9347 -85.8903 346° North 449 517 41,000  Level Memphis Center
Sun 07:06:05 PM 37.2344 -85.9961 344° North 454 522 41,000  Level Indianapolis Center
Sun 07:07:07 PM 37.3592 -86.0397 344° North 458 527 41,000  Level Indianapolis Center
Sun 07:08:09 PM 37.4822 -86.0853 344° North 458 527 41,000  Level Indianapolis Center
Sun 07:09:11 PM 37.6169 -86.1339 344° North 458 527 41,000  Level Indianapolis Center
Sun 07:10:13 PM 37.7400 -86.1778 344° North 459 528 41,000  Level Indianapolis Center
Sun 07:11:15 PM 37.8600 -86.2211 344° North 449 517 41,000  Level Indianapolis Center
Sun 07:12:17 PM 37.9822 -86.2658 344° North 455 524 41,000  Level Indianapolis Center
Sun 07:13:19 PM 38.1044 -86.3108 344° North 456 525 41,000  Level Indianapolis Center
Sun 07:14:21 PM 38.2275 -86.3558 344° North 461 531 41,000  Level Indianapolis Center
Sun 07:15:23 PM 38.3728 -86.4097 344° North 455 524 41,000  Level Indianapolis Center
Sun 07:16:25 PM 38.4947 -86.4539 344° North 456 525 41,000  Level Indianapolis Center
Sun 07:17:27 PM 38.6161 -86.4992 344° North 456 525 41,000  Level Indianapolis Center
Sun 07:18:29 PM 38.7372 -86.5433 344° North 454 522 41,000  Level Indianapolis Center
Sun 07:19:31 PM 38.8589 -86.5892 344° North 455 524 41,000  Level Indianapolis Center
Sun 07:20:33 PM 38.9800 -86.6333 344° North 454 522 41,000  Level Indianapolis Center
Sun 07:21:35 PM 39.1256 -86.6881 344° North 453 521 41,000  Level Indianapolis Center
Sun 07:22:37 PM 39.2464 -86.7339 344° North 451 519 41,000  Level Indianapolis Center
Sun 07:23:39 PM 39.3678 -86.7797 344° North 453 521 41,000  Level Indianapolis Center
Sun 07:24:40 PM 39.4892 -86.8253 344° North 452 520 41,000  Level Indianapolis Center
Sun 07:25:42 PM 39.6108 -86.8717 344° North 454 522 41,000  Level Indianapolis Center
Sun 07:26:44 PM 39.7319 -86.9181 344° North 454 522 41,000  Level Indianapolis Center
Sun 07:27:46 PM 39.8533 -86.9653 343° North 454 522 41,000  Level Indianapolis Center
Sun 07:28:48 PM 40.0006 -87.0200 344° North 454 522 41,000  Level Indianapolis Center
Sun 07:29:50 PM 40.1225 -87.0683 343° North 457 526 41,000  Level Indianapolis Center
Sun 07:30:18 PM 40.1708 -87.0856 345° North 457 526 41,000  Level Chicago Center
Sun 07:31:20 PM 40.2922 -87.1339 343° North 458 527 41,000  Level Chicago Center
Sun 07:32:22 PM 40.4125 -87.1817 343° North 456 525 41,000  Level Chicago Center
Sun 07:33:24 PM 40.5575 -87.2381 344° North 456 525 41,000  Level Chicago Center
Sun 07:34:26 PM 40.6772 -87.2864 343° North 454 522 41,000 97 Level Chicago Center
Sun 07:35:28 PM 40.7978 -87.3319 344° North 454 522 41,200 339 Climbing Chicago Center
Sun 07:36:30 PM 40.9161 -87.3806 343° North 450 518 41,700 484 Climbing Chicago Center
Sun 07:37:32 PM 41.0347 -87.4267 344° North 449 517 42,200 581 Climbing Chicago Center
Sun 07:38:34 PM 41.1742 -87.4825 343° North 443 510 42,900 387 Climbing Chicago Center
Sun 07:39:36 PM 41.2903 -87.5297 343° North 440 506 43,000 48 Climbing Chicago Center
Sun 07:40:38 PM 41.4056 -87.5761 343° North 440 506 43,000  Level Chicago Center
Sun 07:41:40 PM 41.5214 -87.6219 343° North 441 507 43,000  Level Chicago Center
Sun 07:42:42 PM 41.6608 -87.6794 343° North 445 512 43,000  Level Chicago Center
Sun 07:43:44 PM 41.7778 -87.7272 343° North 444 511 43,000  Level Chicago Center
Sun 07:44:46 PM 41.8950 -87.7742 343° North 446 513 43,000  Level Chicago Center
Sun 07:45:48 PM 42.0119 -87.8219 343° North 443 510 43,000  Level Chicago Center
Sun 07:46:50 PM 42.1297 -87.8697 343° North 444 511 43,000  Level Chicago Center
Sun 07:47:52 PM 42.2711 -87.9297 343° North 447 514 43,000  Level Chicago Center
Sun 07:48:54 PM 42.3722 -88.0189 327° Northwest 435 501 43,000  Level Chicago Center
Sun 07:49:56 PM 42.4656 -88.1167 322° Northwest 426 490 43,000  Level Chicago Center
Sun 07:50:58 PM 42.5578 -88.2203 320° Northwest 428 493 43,000  Level Chicago Center
Sun 07:52:00 PM 42.6494 -88.3258 320° Northwest 431 496 43,000  Level Chicago Center
Sun 07:53:02 PM 42.7428 -88.4294 321° Northwest 431 496 43,000  Level Chicago Center
Sun 07:54:04 PM 42.8522 -88.5503 321° Northwest 432 497 43,000  Level Chicago Center
Sun 07:55:06 PM 42.9456 -88.6556 320° Northwest 431 496 43,000  Level Chicago Center
Sun 07:56:09 PM 43.0389 -88.7614 320° Northwest 433 498 43,000  Level Chicago Center
Sun 07:57:11 PM 43.1322 -88.8667 321° Northwest 431 496 43,000  Level Chicago Center
Sun 07:58:13 PM 43.2264 -88.9722 321° Northwest 432 497 43,000  Level Chicago Center
Sun 07:59:15 PM 43.3183 -89.0786 320° Northwest 431 496 43,000  Level Chicago Center
Sun 08:00:17 PM 43.4261 -89.2028 320° Northwest 431 496 43,000  Level Chicago Center
Sun 08:01:19 PM 43.5186 -89.3081 320° Northwest 429 494 43,000  Level Chicago Center
Sun 08:02:21 PM 43.6094 -89.4161 319° Northwest 430 495 43,000  Level Chicago Center
Sun 08:03:23 PM 43.7014 -89.5222 320° Northwest 430 495 43,000 -677 Level Chicago Center
Sun 08:04:25 PM 43.7928 -89.6297 320° Northwest 429 494 41,600 -1,935 Descending Chicago Center
Sun 08:05:27 PM 43.8878 -89.7408 320° Northwest 442 509 39,000 -2,758 Descending Chicago Center
Sun 08:06:29 PM 43.9978 -89.8700 320° Northwest 444 511 35,900 -2,419 Descending Chicago Center
Sun 08:07:31 PM 44.0864 -89.9811 318° Northwest 432 497 34,000 -919 Descending Chicago Center
Sun 08:08:33 PM 44.1381 -90.1153 298° West 398 458 34,000  Level Chicago Center
Sun 08:09:35 PM 44.1886 -90.2561 297° West 406 467 34,000  Level Chicago Center
Sun 08:10:37 PM 44.2339 -90.3903 295° West 412 474 34,000 -242 Level Chicago Center
Sun 08:11:39 PM 44.2936 -90.5614 296° West 413 475 33,500 -1,282 Descending Chicago Center
Sun 08:12:48 PM 44.3458 -90.7147 296° West 414 476 31,200 -2,153 Descending Minneapolis Center
Sun 08:13:50 PM 44.3972 -90.8611 296° West 418 481 28,800 -2,341 Descending Minneapolis Center
Sun 08:14:51 PM 44.4475 -91.0094 295° West 420 483 26,400 -2,293 Descending Minneapolis Center
Sun 08:15:53 PM 44.4967 -91.1514 296° West 414 476 24,100 -2,390 Descending Minneapolis Center
Sun 08:16:54 PM 44.5533 -91.3167 296° West 399 459 21,500 -2,311 Descending Minneapolis Center
Sun 08:17:55 PM 44.5981 -91.4483 296° West 383 441 19,400 -2,000 Descending Minneapolis Center
Sun 08:18:57 PM 44.6417 -91.5814 295° West 370 426 17,400 -1,951 Descending Minneapolis Center
Sun 08:19:58 PM 44.6825 -91.7028 295° West 358 412 15,400 -1,869 Descending Minneapolis Center
Sun 08:20:59 PM 44.7225 -91.8231 295° West 347 399 13,600 -2,118 Descending Minneapolis Center
Sun 08:21:23 PM 44.7506 -91.8783 306° West 320 368 12,400 -2,267 Descending FAA TRACON SMA TRACON (SMA)
Sun 08:21:44 PM 44.7611 -91.9119 294° West 310 357 11,900 -1,500 Descending FAA TRACON SMA TRACON (SMA)
Sun 08:22:03 PM 44.7700 -91.9450 291° West 299 344 11,400 -1,538 Descending FAA TRACON SMA TRACON (SMA)
Sun 08:22:23 PM 44.7814 -91.9761 297° West 295 339 10,900 -1,500 Descending FAA TRACON SMA TRACON (SMA)
Sun 08:22:43 PM 44.7942 -92.0142 295° West 282 325 10,400 -1,500 Descending FAA TRACON SMA TRACON (SMA)
Sun 08:23:03 PM 44.8017 -92.0439 290° West 270 311 9,900 -1,463 Descending FAA TRACON SMA TRACON (SMA)
Sun 08:23:24 PM 44.8147 -92.0800 297° West 268 308 9,400 -1,500 Descending FAA TRACON SMA TRACON (SMA)
Sun 08:23:43 PM 44.8228 -92.1083 292° West 258 297 8,900 -1,350 Descending FAA TRACON SMA TRACON (SMA)
Sun 08:24:04 PM 44.8317 -92.1367 294° West 254 292 8,500 -1,350 Descending FAA TRACON SMA TRACON (SMA)
Sun 08:24:23 PM 44.8417 -92.1717 292° West 254 292 8,000 -1,538 Descending FAA TRACON SMA TRACON (SMA)
Sun 08:24:43 PM 44.8508 -92.2003 294° West 257 296 7,500 -1,500 Descending FAA TRACON SMA TRACON (SMA)
Sun 08:25:07 PM 44.8633 -92.2375 295° West 266 306 6,900 -1,364 Descending FAA TRACON SMA TRACON (SMA)
Sun 08:25:27 PM 44.8722 -92.2672 293° West 270 311 6,500 -1,500 Descending FAA TRACON SMA TRACON (SMA)
Sun 08:25:43 PM 44.8822 -92.2969 295° West 272 313 6,000 -1,000 Descending FAA TRACON SMA TRACON (SMA)
Sun 08:26:03 PM 44.8911 -92.3258 293° West 268 308 5,900 -146 Descending FAA TRACON SMA TRACON (SMA)
Sun 08:26:24 PM 44.9006 -92.3619 290° West 258 297 5,900  Level FAA TRACON SMA TRACON (SMA)
Sun 08:26:43 PM 44.9067 -92.3906 287° West 249 287 5,900  Level FAA TRACON SMA TRACON (SMA)
Sun 08:27:04 PM 44.9122 -92.4197 285° West 250 288 5,900  Level FAA TRACON SMA TRACON (SMA)
Sun 08:27:23 PM 44.9200 -92.4494 290° West 256 295 5,900  Level FAA TRACON SMA TRACON (SMA)
Sun 08:27:43 PM 44.9292 -92.4858 290° West 260 299 5,900  Level FAA TRACON SMA TRACON (SMA)
Sun 08:28:04 PM 44.9356 -92.5136 288° West 251 289 5,900  Level FAA TRACON SMA TRACON (SMA)
Sun 08:28:23 PM 44.9425 -92.5403 290° West 240 276 5,900  Level FAA TRACON SMA TRACON (SMA)
Sun 08:28:44 PM 44.9503 -92.5728 289° West 231 266 5,900  Level FAA TRACON SMA TRACON (SMA)
Sun 08:29:03 PM 44.9575 -92.6000 291° West 234 269 5,900 -615 Level FAA TRACON SMA TRACON (SMA)
Sun 08:29:23 PM 44.9614 -92.6261 282° West 230 265 5,500 -1,500 Descending FAA TRACON SMA TRACON (SMA)
Sun 08:29:43 PM 44.9708 -92.6608 291° West 240 276 4,900 -1,650 Descending FAA TRACON SMA TRACON (SMA)
Sun 08:30:03 PM 44.9781 -92.6889 290° West 244 281 4,400 -1,317 Descending FAA TRACON SMA TRACON (SMA)
Sun 08:30:24 PM 44.9867 -92.7228 290° West 245 282 4,000 -750 Descending FAA TRACON SMA TRACON (SMA)
Sun 08:30:43 PM 44.9936 -92.7492 290° West 236 272 3,900 -154 Descending FAA TRACON SMA TRACON (SMA)
Sun 08:31:03 PM 44.9997 -92.7736 289° West 223 257 3,900  Level FAA TRACON SMA TRACON (SMA)
Sun 08:31:23 PM 45.0061 -92.7983 290° West 216 249 3,900  Level FAA TRACON SMA TRACON (SMA)
Sun 08:31:43 PM 45.0128 -92.8283 287° West 211 243 3,900  Level FAA TRACON SMA TRACON (SMA)
Sun 08:32:04 PM 45.0183 -92.8522 288° West 211 243 3,900  Level FAA TRACON SMA TRACON (SMA)
Sun 08:32:23 PM 45.0242 -92.8769 288° West 213 245 3,900  Level FAA TRACON SMA TRACON (SMA)
Sun 08:32:43 PM 45.0308 -92.9081 287° West 216 249 3,900  Level FAA TRACON SMA TRACON (SMA)
Sun 08:33:04 PM 45.0378 -92.9339 291° West 223 257 3,900  Level FAA TRACON SMA TRACON (SMA)
Sun 08:33:24 PM 45.0433 -92.9586 288° West 220 253 3,900  Level FAA TRACON SMA TRACON (SMA)
Sun 08:33:44 PM 45.0511 -92.9886 290° West 213 245 3,900  Level FAA TRACON SMA TRACON (SMA)
Sun 08:34:04 PM 45.0575 -93.0131 290° West 214 246 3,900  Level FAA TRACON SMA TRACON (SMA)
Sun 08:34:24 PM 45.0650 -93.0425 290° West 210 242 3,900  Level FAA TRACON SMA TRACON (SMA)
Sun 08:34:44 PM 45.0711 -93.0664 290° West 209 241 3,900  Level FAA TRACON SMA TRACON (SMA)
Sun 08:35:04 PM 45.0775 -93.0911 290° West 213 245 3,900  Level FAA TRACON SMA TRACON (SMA)
Sun 08:35:24 PM 45.0850 -93.1225 289° West 218 251 3,900 150 Level FAA TRACON SMA TRACON (SMA)
Sun 08:35:44 PM 45.0911 -93.1467 290° West 215 247 4,000 -150 Climbing FAA TRACON SMA TRACON (SMA)
Sun 08:36:04 PM 45.0897 -93.1694 265° West 210 242 3,800 -450 Descending FAA TRACON SMA TRACON (SMA)
Sun 08:36:24 PM 45.0744 -93.1814 209° Southwest 190 219 3,700 -450 Descending FAA TRACON SMA TRACON (SMA)
Sun 08:36:44 PM 45.0597 -93.1808 178° South 174 200 3,500 -450 Descending FAA TRACON SMA TRACON (SMA)
Sun 08:37:04 PM 45.0461 -93.1733 159° South 172 198 3,400 -146 Descending FAA TRACON SMA TRACON (SMA)
Sun 08:37:25 PM 45.0336 -93.1597 142° Southeast 158 182 3,400 -300 Level FAA TRACON SMA TRACON (SMA)
Sun 08:37:44 PM 45.0264 -93.1461 127° Southeast 146 168 3,200 -154 Descending FAA TRACON SMA TRACON (SMA)
Sun 08:38:04 PM 45.0172 -93.1342 137° Southeast 144 166 3,300 450 Climbing FAA TRACON SMA TRACON (SMA)
Sun 08:38:24 PM 45.0081 -93.1233 140° Southeast 141 162 3,500 300 Climbing FAA TRACON SMA TRACON (SMA)
Sun 08:38:44 PM 44.9961 -93.1067 135° Southeast 153 176 3,500 -150 Level FAA TRACON SMA TRACON (SMA)
Sun 08:39:04 PM 44.9867 -93.0936 136° Southeast 158 182 3,400 -150 Descending FAA TRACON SMA TRACON (SMA)
Sun 08:39:24 PM 44.9850 -93.0739 97° East 174 200 3,400  Level FAA TRACON SMA TRACON (SMA)
Sun 08:39:44 PM 45.0000 -93.0567 39° Northeast 194 223 3,400  Level FAA TRACON SMA TRACON (SMA)
Sun 08:40:04 PM 45.0158 -93.0522 11° North 189 217 3,400  Level FAA TRACON SMA TRACON (SMA)
Sun 08:40:24 PM 45.0311 -93.0478 12° North 184 212 3,400  Level FAA TRACON SMA TRACON (SMA)
Sun 08:40:44 PM 45.0503 -93.0514 352° North 185 213 3,400  Level FAA TRACON SMA TRACON (SMA)
Sun 08:41:04 PM 45.0642 -93.0611 334° Northwest 182 209 3,400  Level FAA TRACON SMA TRACON (SMA)
Sun 08:41:24 PM 45.0778 -93.0708 333° Northwest 180 207 3,400  Level FAA TRACON SMA TRACON (SMA)
Sun 08:41:45 PM 45.0944 -93.0819 335° Northwest 174 200 3,400  Level FAA TRACON SMA TRACON (SMA)
Sun 08:42:05 PM 45.1081 -93.0906 336° Northwest 172 198 3,400  Level FAA TRACON SMA TRACON (SMA)
Sun 08:42:25 PM 45.1250 -93.1025 334° Northwest 177 204 3,400  Level FAA TRACON SMA TRACON (SMA)
Sun 08:42:45 PM 45.1381 -93.1136 329° Northwest 179 206 3,400  Level FAA TRACON SMA TRACON (SMA)
Sun 08:43:05 PM 45.1422 -93.1306 289° West 172 198 3,400  Level FAA TRACON SMA TRACON (SMA)
Sun 08:43:25 PM 45.1461 -93.1531 284° West 154 177 3,400  Level FAA TRACON SMA TRACON (SMA)
Sun 08:43:45 PM 45.1422 -93.1686 250° West 156 180 3,400  Level FAA TRACON SMA TRACON (SMA)
Sun 08:44:04 PM 45.1336 -93.1792 221° Southwest 139 160 3,400  Level FAA TRACON SMA TRACON (SMA)
Sun 08:44:24 PM 45.1256 -93.1903 224° Southwest 132 152 3,400 150 Level FAA TRACON SMA TRACON (SMA)
Sun 08:44:44 PM 45.1142 -93.2028 218° Southwest 135 155 3,500 150 Climbing FAA TRACON SMA TRACON (SMA)
Sun 08:45:04 PM 45.1022 -93.2011 174° South 146 168 3,500  Level FAA TRACON SMA TRACON (SMA)
Sun 08:45:24 PM 45.0892 -93.1964 166° South 153 176 3,500  Level FAA TRACON SMA TRACON (SMA)
Sun 08:45:44 PM 45.0722 -93.1925 171° South 160 184 3,500  Level FAA TRACON SMA TRACON (SMA)
Sun 08:46:04 PM 45.0611 -93.1797 141° Southeast 169 194 3,500 -300 Level FAA TRACON SMA TRACON (SMA)
Sun 08:46:24 PM 45.0500 -93.1706 150° Southeast 158 182 3,300 -600 Descending FAA TRACON SMA TRACON (SMA)
Sun 08:46:44 PM 45.0375 -93.1594 148° Southeast 141 162 3,100 -750 Descending FAA TRACON SMA TRACON (SMA)
Sun 08:47:04 PM 45.0272 -93.1492 145° Southeast 143 165 2,800 -732 Descending FAA TRACON SMA TRACON (SMA)
Sun 08:47:25 PM 45.0175 -93.1400 146° Southeast 138 159 2,600 -750 Descending FAA TRACON SMA TRACON (SMA)
Sun 08:47:44 PM 45.0061 -93.1292 146° Southeast 130 150 2,300 -750 Descending FAA TRACON SMA TRACON (SMA)
Sun 08:48:05 PM 44.9972 -93.1208 146° Southeast 125 144 2,100 -585 Descending FAA TRACON SMA TRACON (SMA)
Sun 08:48:25 PM 44.9889 -93.1128 146° Southeast 121 139 1,900 -750 Descending FAA TRACON SMA TRACON (SMA)
Sun 08:48:45 PM 44.9778 -93.1019 145° Southeast 123 142 1,600 -750 Descending FAA TRACON SMA TRACON (SMA)
Sun 08:49:05 PM 44.9692 -93.0939 147° Southeast 123 142 1,400 -600 Descending FAA TRACON SMA TRACON (SMA)
Sun 08:49:25 PM 44.9600 -93.0856 147° Southeast 126 145 1,200 -600 Descending FAA TRACON SMA TRACON (SMA)
Sun 08:49:45 PM 44.9486 -93.0744 145° Southeast 128 147 1,000 -600 Descending FAA TRACON SMA TRACON (SMA)
Sun 08:51:00 PM 44.9333 -93.0500 188° South  Level FlightAware Approximate
Sun 08:58:00 PM 44.9346 -93.0603 188° South  Level Estimated

Login

Don't have an account? Register now (free) for customized features, flight alerts, and more!